createdAt,value
2023-05-24T00:01:25.893Z,3.92
2023-05-24T00:04:30.209Z,4.68
2023-05-24T00:07:34.659Z,5.82
2023-05-24T00:10:36.232Z,4.47
2023-05-24T00:13:38.363Z,4.40
2023-05-24T00:16:40.070Z,4.80
2023-05-24T00:19:42.669Z,3.60
2023-05-24T00:22:44.268Z,5.00
2023-05-24T00:25:45.830Z,4.18
2023-05-24T00:28:47.463Z,4.60
2023-05-24T00:31:49.071Z,4.78
2023-05-24T00:34:50.749Z,4.40
2023-05-24T00:37:54.816Z,3.85
2023-05-24T00:40:56.695Z,4.13
2023-05-24T00:43:58.498Z,3.42
2023-05-24T00:47:00.824Z,3.95
2023-05-24T00:50:13.018Z,4.57
2023-05-24T00:53:14.664Z,4.30
2023-05-24T00:56:17.573Z,4.00
2023-05-24T00:59:19.265Z,4.28
2023-05-24T01:02:33.692Z,6.15
2023-05-24T01:05:35.472Z,4.07
2023-05-24T01:08:39.994Z,4.10
2023-05-24T01:16:22.832Z,4.50
2023-05-24T01:19:51.882Z,4.50
2023-05-24T01:23:14.692Z,4.85
2023-05-24T01:26:32.304Z,4.60
2023-05-24T01:29:35.691Z,4.30
2023-05-24T01:32:38.881Z,4.68
2023-05-24T01:35:42.253Z,4.35
2023-05-24T01:38:44.130Z,4.78
2023-05-24T01:41:58.785Z,5.15
2023-05-24T01:45:00.384Z,4.43
2023-05-24T01:48:19.629Z,4.18
2023-05-24T01:51:26.369Z,4.93
2023-05-24T01:54:33.671Z,4.25
2023-05-24T01:57:39.705Z,4.40
2023-05-24T02:00:42.447Z,4.80
2023-05-24T02:03:44.313Z,4.88
2023-05-24T02:06:45.927Z,4.65
2023-05-24T02:09:49.942Z,4.55
2023-05-24T02:12:51.553Z,4.10
2023-05-24T02:15:58.243Z,4.18
2023-05-24T02:18:59.815Z,5.10
2023-05-24T02:22:01.518Z,4.50
2023-05-24T02:25:03.225Z,4.80
2023-05-24T02:28:04.869Z,5.20
2023-05-24T02:31:06.563Z,5.30
2023-05-24T02:34:08.466Z,5.63
2023-05-24T02:37:14.429Z,4.57
2023-05-24T02:40:16.347Z,4.90
2023-05-24T02:43:18.635Z,5.45
2023-05-24T02:46:20.402Z,5.10
2023-05-24T02:49:23.994Z,5.07
2023-05-24T02:52:26.668Z,5.03
2023-05-24T02:55:29.176Z,5.10
2023-05-24T02:58:31.192Z,5.25
2023-05-24T03:01:34.357Z,5.03
2023-05-24T03:04:36.031Z,5.55
2023-05-24T03:07:37.647Z,4.45
2023-05-24T03:10:39.421Z,4.50
2023-05-24T03:13:41.086Z,5.55
2023-05-24T03:16:42.802Z,5.68
2023-05-24T03:19:44.557Z,5.82
2023-05-24T03:22:46.667Z,5.50
2023-05-24T03:25:48.369Z,5.40
2023-05-24T03:28:54.318Z,4.95
2023-05-24T03:31:56.063Z,6.05
2023-05-24T03:34:59.387Z,5.63
2023-05-24T03:38:01.048Z,5.70
2023-05-24T03:41:06.103Z,6.03
2023-05-24T03:44:08.175Z,6.10
2023-05-24T03:47:09.776Z,5.32
2023-05-24T03:50:11.420Z,6.50
2023-05-24T03:53:13.152Z,6.47
2023-05-24T03:56:14.753Z,6.35
2023-05-24T03:59:16.348Z,5.38
2023-05-24T04:02:18.171Z,5.53
2023-05-24T04:05:19.814Z,6.40
2023-05-24T04:08:22.135Z,7.18
2023-05-24T04:11:24.211Z,7.55
2023-05-24T04:14:25.822Z,6.20
2023-05-24T04:17:29.490Z,8.35
2023-05-24T04:20:31.305Z,6.32
2023-05-24T04:23:32.937Z,6.60
2023-05-24T04:26:35.040Z,7.53
2023-05-24T04:29:37.351Z,7.25
2023-05-24T04:32:40.566Z,7.82
2023-05-24T04:35:44.186Z,7.57
2023-05-24T04:38:46.300Z,7.65
2023-05-24T04:41:51.001Z,7.10
2023-05-24T04:44:52.977Z,7.10
2023-05-24T04:47:54.608Z,7.28
2023-05-24T04:50:57.948Z,7.78
2023-05-24T04:54:00.337Z,7.80
2023-05-24T04:57:01.967Z,7.40
2023-05-24T05:00:05.017Z,8.13
2023-05-24T05:03:07.430Z,7.47
2023-05-24T05:06:09.084Z,8.40
2023-05-24T05:09:13.277Z,7.50
2023-05-24T05:12:15.310Z,7.57
2023-05-24T05:15:17.021Z,6.85
2023-05-24T05:18:18.713Z,8.13
2023-05-24T05:21:20.415Z,7.72
2023-05-24T05:24:22.092Z,9.25
2023-05-24T05:27:23.786Z,8.63
2023-05-24T05:30:25.397Z,9.07
2023-05-24T05:33:27.025Z,8.38
2023-05-24T05:36:28.698Z,8.77
2023-05-24T05:39:31.823Z,9.15
2023-05-24T05:42:33.435Z,7.72
2023-05-24T05:45:35.304Z,7.25
2023-05-24T05:48:36.912Z,7.13
2023-05-24T05:51:39.380Z,8.05
2023-05-24T05:54:41.127Z,7.50
2023-05-24T05:57:43.375Z,6.60
2023-05-24T06:00:44.997Z,7.40
2023-05-24T06:03:46.861Z,7.10
2023-05-24T06:06:49.748Z,7.57
2023-05-24T06:09:51.650Z,7.60
2023-05-24T06:12:53.332Z,8.50
2023-05-24T06:15:55.525Z,8.70
2023-05-24T06:19:05.943Z,8.30
2023-05-24T06:22:08.335Z,7.00
2023-05-24T06:25:10.172Z,8.50
2023-05-24T06:28:11.808Z,8.63
2023-05-24T06:31:13.450Z,8.40
2023-05-24T06:34:18.887Z,8.23
2023-05-24T06:37:25.535Z,7.53
2023-05-24T06:40:27.157Z,8.30
2023-05-24T06:43:28.765Z,7.65
2023-05-24T06:46:30.551Z,7.28
2023-05-24T06:49:32.859Z,7.70
2023-05-24T06:52:34.889Z,7.47
2023-05-24T06:55:36.568Z,7.75
2023-05-24T06:58:38.268Z,9.27
2023-05-24T07:01:42.727Z,8.73
2023-05-24T07:04:44.428Z,7.78
2023-05-24T07:07:46.112Z,6.32
2023-05-24T07:10:47.729Z,7.40
2023-05-24T07:13:49.327Z,7.35
2023-05-24T07:16:50.964Z,7.50
2023-05-24T07:19:52.586Z,6.72
2023-05-24T07:22:54.193Z,7.18
2023-05-24T07:25:55.753Z,7.60
2023-05-24T07:28:57.452Z,7.05
2023-05-24T07:31:59.191Z,6.00
2023-05-24T07:35:00.890Z,6.53
2023-05-24T07:38:02.549Z,5.40
2023-05-24T07:41:06.455Z,6.07
2023-05-24T07:44:08.136Z,6.47
2023-05-24T07:47:09.770Z,6.75
2023-05-24T07:50:11.750Z,6.38
2023-05-24T07:53:13.614Z,6.90
2023-05-24T07:56:15.210Z,5.57
2023-05-24T07:59:17.044Z,5.60
2023-05-24T08:02:18.651Z,5.93
2023-05-24T08:05:20.497Z,6.07
2023-05-24T08:08:22.330Z,5.63
2023-05-24T08:11:24.139Z,5.40
2023-05-24T08:14:25.768Z,6.93
2023-05-24T08:17:27.715Z,5.70
2023-05-24T08:20:29.415Z,5.60
2023-05-24T08:23:31.074Z,5.72
2023-05-24T08:26:32.643Z,5.97
2023-05-24T08:29:35.722Z,5.55
2023-05-24T08:32:38.415Z,4.93
2023-05-24T08:35:40.479Z,5.72
2023-05-24T08:38:42.203Z,5.88
2023-05-24T08:41:47.457Z,4.78
2023-05-24T08:44:59.162Z,5.95
2023-05-24T08:48:01.888Z,5.93
2023-05-24T08:51:04.294Z,4.60
2023-05-24T08:54:06.952Z,6.18
2023-05-24T08:57:11.753Z,5.25
2023-05-24T09:00:14.091Z,4.88
2023-05-24T09:03:17.571Z,5.30
2023-05-24T09:06:19.501Z,5.93
2023-05-24T09:09:24.957Z,5.55
2023-05-24T09:12:37.491Z,5.95
2023-05-24T09:15:40.103Z,5.40
2023-05-24T09:18:42.710Z,5.65
2023-05-24T09:21:44.574Z,5.68
2023-05-24T09:24:53.270Z,4.97
2023-05-24T09:27:56.311Z,5.43
2023-05-24T09:31:05.531Z,5.07
2023-05-24T09:34:12.810Z,5.35
2023-05-24T09:37:19.419Z,5.75
2023-05-24T09:40:21.617Z,7.97
2023-05-24T09:43:26.254Z,6.28
2023-05-24T09:46:29.371Z,5.72
2023-05-24T09:49:31.692Z,5.20
2023-05-24T09:52:37.194Z,5.22
2023-05-24T09:55:38.836Z,5.60
2023-05-24T09:58:42.213Z,5.60
2023-05-24T10:01:44.298Z,5.75
2023-05-24T10:04:47.097Z,6.20
2023-05-24T10:07:48.964Z,6.60
2023-05-24T10:10:50.728Z,6.05
2023-05-24T10:13:52.541Z,6.68
2023-05-24T10:16:54.199Z,6.60
2023-05-24T10:19:57.015Z,4.68
2023-05-24T10:23:01.745Z,5.32
2023-05-24T10:26:06.697Z,5.38
2023-05-24T10:29:17.722Z,4.70
2023-05-24T10:32:20.976Z,5.38
2023-05-24T10:35:23.344Z,5.53
2023-05-24T10:38:25.429Z,6.10
2023-05-24T10:41:27.848Z,5.07
2023-05-24T10:44:30.790Z,5.32
2023-05-24T10:47:32.978Z,5.47
2023-05-24T10:50:34.629Z,4.97
2023-05-24T10:53:40.779Z,5.60
2023-05-24T10:56:50.459Z,5.45
2023-05-24T10:59:52.155Z,5.63
2023-05-24T11:03:24.411Z,6.15
2023-05-24T11:06:45.315Z,5.97
2023-05-24T11:09:52.794Z,5.65
2023-05-24T11:13:02.111Z,5.32
2023-05-24T11:16:03.966Z,6.15
2023-05-24T11:19:34.120Z,5.68
2023-05-24T11:22:36.075Z,5.65
2023-05-24T11:25:38.806Z,6.38
2023-05-24T11:28:41.556Z,5.57
2023-05-24T11:31:58.269Z,5.57
2023-05-24T11:34:59.933Z,5.40
2023-05-24T11:38:02.628Z,6.05
2023-05-24T11:41:05.013Z,5.75
2023-05-24T11:44:09.077Z,6.00
2023-05-24T11:47:12.928Z,5.55
2023-05-24T11:50:25.335Z,5.97
2023-05-24T11:53:28.527Z,5.95
2023-05-24T11:56:33.509Z,5.13
2023-05-24T11:59:37.783Z,5.60
2023-05-24T12:02:40.278Z,4.50
2023-05-24T12:05:42.387Z,6.00
2023-05-24T12:08:44.031Z,5.38
2023-05-24T12:11:50.524Z,4.93
2023-05-24T12:14:55.913Z,6.78
2023-05-24T12:18:00.612Z,6.15
2023-05-24T12:21:08.597Z,6.15
2023-05-24T12:24:16.166Z,6.15
2023-05-24T12:27:17.827Z,5.55
2023-05-24T12:30:23.917Z,5.68
2023-05-24T12:33:26.059Z,6.18
2023-05-24T12:36:31.208Z,6.80
2023-05-24T12:39:35.895Z,5.55
2023-05-24T12:42:37.506Z,5.68
2023-05-24T12:45:39.134Z,6.78
2023-05-24T12:48:40.881Z,6.05
2023-05-24T12:51:42.501Z,6.15
2023-05-24T12:54:44.105Z,5.65
2023-05-24T12:57:53.147Z,5.25
2023-05-24T13:00:55.088Z,7.03
2023-05-24T13:03:56.880Z,5.75
2023-05-24T13:06:58.491Z,5.78
2023-05-24T13:10:00.205Z,6.05
2023-05-24T13:13:01.949Z,6.03
2023-05-24T13:16:07.208Z,6.85
2023-05-24T13:19:08.810Z,6.25
2023-05-24T13:22:10.684Z,6.70
2023-05-24T13:25:12.294Z,6.85
2023-05-24T13:28:13.921Z,5.95
2023-05-24T13:31:15.550Z,5.95
2023-05-24T13:34:18.584Z,6.28
2023-05-24T13:37:20.191Z,6.07
2023-05-24T13:40:24.874Z,6.43
2023-05-24T13:43:26.496Z,5.93
2023-05-24T13:46:29.130Z,5.95
2023-05-24T13:49:30.751Z,5.90
2023-05-24T13:52:32.811Z,6.28
2023-05-24T13:55:36.013Z,6.63
2023-05-24T13:58:37.732Z,6.60
2023-05-24T14:01:39.404Z,6.75
2023-05-24T14:04:41.301Z,7.57
2023-05-24T14:07:43.023Z,6.25
2023-05-24T14:10:46.756Z,7.10
2023-05-24T14:16:55.079Z,6.13
2023-05-24T14:19:56.896Z,7.28
2023-05-24T14:22:59.272Z,6.05
2023-05-24T14:26:02.447Z,6.43
2023-05-24T14:29:05.069Z,7.20
2023-05-24T14:32:06.909Z,6.97
2023-05-24T14:35:08.765Z,7.15
2023-05-24T14:38:11.940Z,6.68
2023-05-24T14:41:13.552Z,7.40
2023-05-24T14:44:15.207Z,7.32
2023-05-24T14:47:16.797Z,7.28
2023-05-24T14:50:18.427Z,6.65
2023-05-24T14:53:20.096Z,6.88
2023-05-24T14:56:21.928Z,7.35
2023-05-24T14:59:23.680Z,6.60
2023-05-24T15:02:25.719Z,7.20
2023-05-24T15:05:27.407Z,7.55
2023-05-24T15:08:29.292Z,6.72
2023-05-24T15:11:30.967Z,6.93
2023-05-24T15:14:32.659Z,7.80
2023-05-24T15:17:34.300Z,6.88
2023-05-24T15:20:36.512Z,7.80
2023-05-24T15:23:38.165Z,6.65
2023-05-24T15:26:39.859Z,6.93
2023-05-24T15:29:41.626Z,6.88
2023-05-24T15:32:43.515Z,6.78
2023-05-24T15:35:45.234Z,6.63
2023-05-24T15:38:46.862Z,6.60
2023-05-24T15:41:48.943Z,7.10
2023-05-24T15:44:51.537Z,6.97
2023-05-24T15:47:54.521Z,6.30
2023-05-24T15:51:31.994Z,7.20
2023-05-24T15:54:17.825Z,7.22
2023-05-24T15:57:19.451Z,7.65
2023-05-24T16:00:21.869Z,6.82
2023-05-24T16:03:23.629Z,6.28
2023-05-24T16:06:25.347Z,7.28
2023-05-24T16:09:27.324Z,7.78
2023-05-24T16:12:30.130Z,7.10
2023-05-24T16:15:34.694Z,7.57
2023-05-24T16:18:37.003Z,6.55
2023-05-24T16:21:38.825Z,6.40
2023-05-24T16:24:41.307Z,6.93
2023-05-24T16:27:42.964Z,6.38
2023-05-24T16:30:44.805Z,7.35
2023-05-24T16:33:46.609Z,6.40
2023-05-24T16:36:48.270Z,7.03
2023-05-24T16:42:59.236Z,5.82
2023-05-24T16:46:01.474Z,5.90
2023-05-24T16:49:03.602Z,7.10
2023-05-24T16:52:14.292Z,5.53
2023-05-24T16:55:16.320Z,5.80
2023-05-24T16:58:17.912Z,6.00
2023-05-24T17:01:19.670Z,6.50
2023-05-24T17:04:21.262Z,6.60
2023-05-24T17:07:22.981Z,6.78
2023-05-24T17:10:24.578Z,6.65
2023-05-24T17:13:29.603Z,5.63
2023-05-24T17:16:31.564Z,6.30
2023-05-24T17:19:33.298Z,5.22
2023-05-24T17:22:34.908Z,5.93
2023-05-24T17:25:36.515Z,6.05
2023-05-24T17:28:38.153Z,5.15
2023-05-24T17:31:39.833Z,6.05
2023-05-24T17:34:42.019Z,5.78
2023-05-24T17:37:43.722Z,5.88
2023-05-24T17:40:45.446Z,5.68
2023-05-24T17:43:47.089Z,6.03
2023-05-24T17:46:48.878Z,5.72
2023-05-24T17:49:50.559Z,6.15
2023-05-24T17:52:52.197Z,5.65
2023-05-24T17:55:53.845Z,6.72
2023-05-24T17:58:55.566Z,5.80
2023-05-24T18:01:57.217Z,5.63
2023-05-24T18:04:58.963Z,6.00
2023-05-24T18:08:00.644Z,6.72
2023-05-24T18:11:07.865Z,6.20
2023-05-24T18:14:09.523Z,6.85
2023-05-24T18:17:11.278Z,5.93
2023-05-24T18:20:14.910Z,5.95
2023-05-24T18:23:16.706Z,5.78
2023-05-24T18:26:18.488Z,6.53
2023-05-24T18:29:20.316Z,5.88
2023-05-24T18:32:21.985Z,5.68
2023-05-24T18:35:23.603Z,5.90
2023-05-24T18:38:25.293Z,5.40
2023-05-24T18:41:26.934Z,5.97
2023-05-24T18:44:28.551Z,5.63
2023-05-24T18:47:31.225Z,5.63
2023-05-24T18:50:32.963Z,6.28
2023-05-24T18:53:35.806Z,5.55
2023-05-24T18:56:37.418Z,6.40
2023-05-24T18:59:39.115Z,5.88
2023-05-24T19:02:40.922Z,5.38
2023-05-24T19:05:44.209Z,6.43
2023-05-24T19:08:46.141Z,5.38
2023-05-24T19:11:48.790Z,6.13
2023-05-24T19:14:50.384Z,5.47
2023-05-24T19:17:53.175Z,5.85
2023-05-24T19:20:54.810Z,6.40
2023-05-24T19:23:56.437Z,5.80
2023-05-24T19:26:58.136Z,5.90
2023-05-24T19:30:00.030Z,6.13
2023-05-24T19:33:01.699Z,5.88
2023-05-24T19:36:03.401Z,5.45
2023-05-24T19:39:05.542Z,5.97
2023-05-24T19:42:07.139Z,6.25
2023-05-24T19:45:09.481Z,6.53
2023-05-24T19:48:11.239Z,6.70
2023-05-24T19:51:15.386Z,6.25
2023-05-24T19:54:16.984Z,6.05
2023-05-24T19:57:19.017Z,6.07
2023-05-24T20:00:21.260Z,6.72
2023-05-24T20:03:24.196Z,6.05
2023-05-24T20:06:26.347Z,6.72
2023-05-24T20:09:28.133Z,7.18
2023-05-24T20:12:30.760Z,6.15
2023-05-24T20:15:32.423Z,6.50
2023-05-24T20:18:37.182Z,5.70
2023-05-24T20:21:38.772Z,6.25
2023-05-24T20:24:40.367Z,6.28
2023-05-24T20:27:42.901Z,7.13
2023-05-24T20:30:47.128Z,7.35
2023-05-24T20:33:54.365Z,6.82
2023-05-24T20:36:56.207Z,7.35
2023-05-24T20:39:57.840Z,7.32
2023-05-24T20:42:59.520Z,7.35
2023-05-24T20:46:01.694Z,7.72
2023-05-24T20:49:07.426Z,9.38
2023-05-24T20:52:13.394Z,7.93
2023-05-24T20:55:16.467Z,8.70
2023-05-24T20:58:18.237Z,7.55
2023-05-24T21:01:20.689Z,8.80
2023-05-24T21:04:22.407Z,8.82
2023-05-24T21:07:24.073Z,9.10
2023-05-24T21:10:27.811Z,8.73
2023-05-24T21:13:30.145Z,8.50
2023-05-24T21:16:32.607Z,9.35
2023-05-24T21:19:34.213Z,8.77
2023-05-24T21:22:35.867Z,8.77
2023-05-24T21:25:39.987Z,9.45
2023-05-24T21:28:41.641Z,10.40
2023-05-24T21:31:43.372Z,9.13
2023-05-24T21:34:45.056Z,9.63
2023-05-24T21:37:46.811Z,9.05
2023-05-24T21:40:48.515Z,8.48
2023-05-24T21:43:52.907Z,9.40
2023-05-24T21:46:54.667Z,9.18
2023-05-24T21:49:56.502Z,7.18
2023-05-24T21:52:58.161Z,8.30
2023-05-24T21:55:59.879Z,10.95
2023-05-24T21:59:01.497Z,9.43
2023-05-24T22:02:03.499Z,9.15
2023-05-24T22:05:05.512Z,10.48
2023-05-24T22:08:07.237Z,9.82
2023-05-24T22:11:08.901Z,9.65
2023-05-24T22:14:10.904Z,10.57
2023-05-24T22:17:14.012Z,9.73
2023-05-24T22:20:15.940Z,9.23
2023-05-24T22:23:17.739Z,11.52
2023-05-24T22:26:19.344Z,10.10
2023-05-24T22:29:20.919Z,10.23
2023-05-24T22:32:22.581Z,10.02
2023-05-24T22:35:26.758Z,11.85
2023-05-24T22:38:28.493Z,11.82
2023-05-24T22:41:30.236Z,10.70
2023-05-24T22:44:31.811Z,11.77
2023-05-24T22:47:33.789Z,11.05
2023-05-24T22:50:35.868Z,10.57
2023-05-24T22:53:39.446Z,10.38
2023-05-24T22:56:42.899Z,10.82
2023-05-24T22:59:45.782Z,12.32
2023-05-24T23:02:47.412Z,10.70
2023-05-24T23:05:49.106Z,12.60
2023-05-24T23:08:50.883Z,12.82
2023-05-24T23:11:54.542Z,12.05
2023-05-24T23:14:58.207Z,12.05
2023-05-24T23:18:00.548Z,14.13
2023-05-24T23:21:03.040Z,11.90
2023-05-24T23:24:05.723Z,11.70
2023-05-24T23:27:07.410Z,13.55
2023-05-24T23:30:09.261Z,13.00
2023-05-24T23:33:11.283Z,11.65
2023-05-24T23:36:12.954Z,11.73
2023-05-24T23:39:14.648Z,12.55
2023-05-24T23:42:16.261Z,12.93
2023-05-24T23:45:17.912Z,11.77
2023-05-24T23:48:21.614Z,10.98
2023-05-24T23:51:23.241Z,11.70
2023-05-24T23:54:24.840Z,11.20
2023-05-24T23:57:27.054Z,12.13
